sensor_id;sensor_type;location;lat;lon;timestamp;P1;durP1;ratioP1;P2;durP2;ratioP2
17596;SDS011;8917;50.942;6.946;2022-12-07T00:00:19;15.23;;;12.17;;
17596;SDS011;8917;50.942;6.946;2022-12-07T00:02:47;14.63;;;11.83;;
17596;SDS011;8917;50.942;6.946;2022-12-07T00:05:15;14.40;;;11.93;;
17596;SDS011;8917;50.942;6.946;2022-12-07T00:07:43;13.37;;;11.93;;
17596;SDS011;8917;50.942;6.946;2022-12-07T00:10:10;14.20;;;11.77;;
17596;SDS011;8917;50.942;6.946;2022-12-07T00:12:37;13.77;;;11.17;;
17596;SDS011;8917;50.942;6.946;2022-12-07T00:15:05;15.87;;;11.33;;
17596;SDS011;8917;50.942;6.946;2022-12-07T00:17:32;16.77;;;12.17;;
17596;SDS011;8917;50.942;6.946;2022-12-07T00:20:00;14.10;;;11.23;;
17596;SDS011;8917;50.942;6.946;2022-12-07T00:22:28;13.23;;;11.60;;
17596;SDS011;8917;50.942;6.946;2022-12-07T00:24:56;16.20;;;12.17;;
17596;SDS011;8917;50.942;6.946;2022-12-07T00:27:23;14.53;;;10.93;;
17596;SDS011;8917;50.942;6.946;2022-12-07T00:29:50;16.13;;;11.70;;
17596;SDS011;8917;50.942;6.946;2022-12-07T00:32:18;15.67;;;11.60;;
17596;SDS011;8917;50.942;6.946;2022-12-07T00:34:45;16.77;;;11.40;;
17596;SDS011;8917;50.942;6.946;2022-12-07T00:37:12;13.60;;;11.40;;
17596;SDS011;8917;50.942;6.946;2022-12-07T00:39:41;15.87;;;10.77;;
17596;SDS011;8917;50.942;6.946;2022-12-07T00:42:08;14.33;;;11.27;;
17596;SDS011;8917;50.942;6.946;2022-12-07T00:44:35;14.87;;;11.67;;
17596;SDS011;8917;50.942;6.946;2022-12-07T00:47:03;13.03;;;11.33;;
17596;SDS011;8917;50.942;6.946;2022-12-07T00:49:30;14.93;;;11.93;;
17596;SDS011;8917;50.942;6.946;2022-12-07T00:51:57;16.03;;;11.97;;
17596;SDS011;8917;50.942;6.946;2022-12-07T00:54:25;13.60;;;11.67;;
17596;SDS011;8917;50.942;6.946;2022-12-07T00:56:53;14.10;;;12.03;;
17596;SDS011;8917;50.942;6.946;2022-12-07T00:59:21;13.17;;;11.77;;
17596;SDS011;8917;50.942;6.946;2022-12-07T01:01:48;16.10;;;11.70;;
17596;SDS011;8917;50.942;6.946;2022-12-07T01:04:15;15.10;;;11.90;;
17596;SDS011;8917;50.942;6.946;2022-12-07T01:06:43;15.07;;;11.47;;
17596;SDS011;8917;50.942;6.946;2022-12-07T01:09:10;14.83;;;12.27;;
17596;SDS011;8917;50.942;6.946;2022-12-07T01:11:37;14.27;;;11.83;;
17596;SDS011;8917;50.942;6.946;2022-12-07T01:14:06;15.43;;;11.53;;
17596;SDS011;8917;50.942;6.946;2022-12-07T01:16:33;14.40;;;11.93;;
17596;SDS011;8917;50.942;6.946;2022-12-07T01:19:01;14.17;;;12.47;;
17596;SDS011;8917;50.942;6.946;2022-12-07T01:21:30;17.53;;;11.33;;
17596;SDS011;8917;50.942;6.946;2022-12-07T01:23:59;16.63;;;12.20;;
17596;SDS011;8917;50.942;6.946;2022-12-07T01:26:27;14.33;;;12.30;;
17596;SDS011;8917;50.942;6.946;2022-12-07T01:28:54;16.50;;;13.17;;
17596;SDS011;8917;50.942;6.946;2022-12-07T01:31:25;14.27;;;11.80;;
17596;SDS011;8917;50.942;6.946;2022-12-07T01:33:54;16.77;;;12.67;;
17596;SDS011;8917;50.942;6.946;2022-12-07T01:36:22;15.13;;;12.83;;
17596;SDS011;8917;50.942;6.946;2022-12-07T01:38:50;14.80;;;11.57;;
17596;SDS011;8917;50.942;6.946;2022-12-07T01:41:18;16.40;;;12.67;;
17596;SDS011;8917;50.942;6.946;2022-12-07T01:44:07;14.20;;;12.07;;
17596;SDS011;8917;50.942;6.946;2022-12-07T01:46:36;17.20;;;13.40;;
17596;SDS011;8917;50.942;6.946;2022-12-07T01:49:03;17.23;;;13.73;;
17596;SDS011;8917;50.942;6.946;2022-12-07T01:51:33;17.80;;;12.60;;
17596;SDS011;8917;50.942;6.946;2022-12-07T01:54:00;14.03;;;12.07;;
17596;SDS011;8917;50.942;6.946;2022-12-07T01:56:28;14.57;;;11.90;;
17596;SDS011;8917;50.942;6.946;2022-12-07T01:58:56;15.53;;;12.67;;
17596;SDS011;8917;50.942;6.946;2022-12-07T02:01:23;14.27;;;12.17;;
17596;SDS011;8917;50.942;6.946;2022-12-07T02:03:52;13.80;;;12.30;;
17596;SDS011;8917;50.942;6.946;2022-12-07T02:06:20;18.00;;;12.97;;
17596;SDS011;8917;50.942;6.946;2022-12-07T02:08:49;16.07;;;12.47;;
17596;SDS011;8917;50.942;6.946;2022-12-07T02:11:16;17.20;;;12.47;;
17596;SDS011;8917;50.942;6.946;2022-12-07T02:13:44;14.70;;;13.13;;
17596;SDS011;8917;50.942;6.946;2022-12-07T02:16:15;15.80;;;12.70;;
17596;SDS011;8917;50.942;6.946;2022-12-07T02:18:48;13.57;;;12.03;;
17596;SDS011;8917;50.942;6.946;2022-12-07T02:21:23;15.37;;;12.30;;
17596;SDS011;8917;50.942;6.946;2022-12-07T02:23:57;13.23;;;11.30;;
17596;SDS011;8917;50.942;6.946;2022-12-07T02:26:35;15.30;;;10.70;;
17596;SDS011;8917;50.942;6.946;2022-12-07T02:29:11;12.93;;;11.53;;
17596;SDS011;8917;50.942;6.946;2022-12-07T02:31:42;15.53;;;12.63;;
17596;SDS011;8917;50.942;6.946;2022-12-07T02:34:12;14.87;;;11.97;;
17596;SDS011;8917;50.942;6.946;2022-12-07T02:36:42;15.60;;;11.80;;
17596;SDS011;8917;50.942;6.946;2022-12-07T02:39:11;16.10;;;12.33;;
17596;SDS011;8917;50.942;6.946;2022-12-07T02:41:42;16.13;;;12.90;;
17596;SDS011;8917;50.942;6.946;2022-12-07T02:44:13;14.13;;;12.17;;
17596;SDS011;8917;50.942;6.946;2022-12-07T02:46:42;16.27;;;12.23;;
17596;SDS011;8917;50.942;6.946;2022-12-07T02:49:09;12.80;;;11.50;;
17596;SDS011;8917;50.942;6.946;2022-12-07T02:51:38;15.30;;;12.37;;
17596;SDS011;8917;50.942;6.946;2022-12-07T02:54:08;14.57;;;12.40;;
17596;SDS011;8917;50.942;6.946;2022-12-07T02:56:39;14.30;;;12.00;;
17596;SDS011;8917;50.942;6.946;2022-12-07T02:59:14;15.83;;;11.97;;
17596;SDS011;8917;50.942;6.946;2022-12-07T03:01:47;16.90;;;12.00;;
17596;SDS011;8917;50.942;6.946;2022-12-07T03:04:20;14.80;;;12.47;;
17596;SDS011;8917;50.942;6.946;2022-12-07T03:06:52;17.17;;;12.83;;
17596;SDS011;8917;50.942;6.946;2022-12-07T03:09:21;18.13;;;13.10;;
17596;SDS011;8917;50.942;6.946;2022-12-07T03:11:52;15.30;;;12.37;;
17596;SDS011;8917;50.942;6.946;2022-12-07T03:14:24;17.23;;;13.50;;
17596;SDS011;8917;50.942;6.946;2022-12-07T03:16:53;16.00;;;13.10;;
17596;SDS011;8917;50.942;6.946;2022-12-07T03:19:21;17.63;;;12.90;;
17596;SDS011;8917;50.942;6.946;2022-12-07T03:21:51;16.73;;;13.17;;
17596;SDS011;8917;50.942;6.946;2022-12-07T03:24:22;16.67;;;13.57;;
17596;SDS011;8917;50.942;6.946;2022-12-07T03:26:52;14.73;;;13.03;;
17596;SDS011;8917;50.942;6.946;2022-12-07T03:29:25;17.07;;;14.33;;
17596;SDS011;8917;50.942;6.946;2022-12-07T03:31:54;18.17;;;13.83;;
17596;SDS011;8917;50.942;6.946;2022-12-07T03:34:24;15.13;;;12.43;;
17596;SDS011;8917;50.942;6.946;2022-12-07T03:36:55;17.55;;;13.50;;
17596;SDS011;8917;50.942;6.946;2022-12-07T03:39:24;16.23;;;12.80;;
17596;SDS011;8917;50.942;6.946;2022-12-07T03:41:53;18.07;;;13.87;;
17596;SDS011;8917;50.942;6.946;2022-12-07T03:44:21;16.67;;;13.33;;
17596;SDS011;8917;50.942;6.946;2022-12-07T03:46:52;18.97;;;14.07;;
17596;SDS011;8917;50.942;6.946;2022-12-07T03:49:23;17.03;;;12.87;;
17596;SDS011;8917;50.942;6.946;2022-12-07T03:51:54;16.57;;;13.57;;
17596;SDS011;8917;50.942;6.946;2022-12-07T03:54:23;17.07;;;13.00;;
17596;SDS011;8917;50.942;6.946;2022-12-07T03:56:51;19.20;;;13.70;;
17596;SDS011;8917;50.942;6.946;2022-12-07T03:59:19;14.83;;;12.70;;
17596;SDS011;8917;50.942;6.946;2022-12-07T04:01:52;15.77;;;13.03;;
17596;SDS011;8917;50.942;6.946;2022-12-07T04:04:20;19.20;;;14.13;;
17596;SDS011;8917;50.942;6.946;2022-12-07T04:06:47;17.30;;;13.40;;
17596;SDS011;8917;50.942;6.946;2022-12-07T04:09:15;15.93;;;13.87;;
17596;SDS011;8917;50.942;6.946;2022-12-07T04:11:43;14.63;;;12.63;;
17596;SDS011;8917;50.942;6.946;2022-12-07T04:14:10;16.47;;;12.80;;
17596;SDS011;8917;50.942;6.946;2022-12-07T04:16:46;17.53;;;13.03;;
17596;SDS011;8917;50.942;6.946;2022-12-07T04:19:16;16.13;;;14.10;;
17596;SDS011;8917;50.942;6.946;2022-12-07T04:21:43;14.77;;;12.83;;
17596;SDS011;8917;50.942;6.946;2022-12-07T04:24:11;16.03;;;12.80;;
17596;SDS011;8917;50.942;6.946;2022-12-07T04:26:38;17.40;;;13.03;;
17596;SDS011;8917;50.942;6.946;2022-12-07T04:29:06;17.40;;;13.40;;
17596;SDS011;8917;50.942;6.946;2022-12-07T04:31:33;16.03;;;13.60;;
17596;SDS011;8917;50.942;6.946;2022-12-07T04:34:01;17.07;;;12.90;;
17596;SDS011;8917;50.942;6.946;2022-12-07T04:36:29;18.40;;;13.43;;
17596;SDS011;8917;50.942;6.946;2022-12-07T04:38:57;17.27;;;13.57;;
17596;SDS011;8917;50.942;6.946;2022-12-07T04:41:24;15.67;;;12.90;;
17596;SDS011;8917;50.942;6.946;2022-12-07T04:43:53;15.90;;;13.00;;
17596;SDS011;8917;50.942;6.946;2022-12-07T04:46:21;18.67;;;14.00;;
17596;SDS011;8917;50.942;6.946;2022-12-07T04:48:48;16.27;;;13.23;;
17596;SDS011;8917;50.942;6.946;2022-12-07T04:51:18;14.27;;;12.70;;
17596;SDS011;8917;50.942;6.946;2022-12-07T04:53:47;15.57;;;13.43;;
17596;SDS011;8917;50.942;6.946;2022-12-07T04:56:15;14.97;;;12.77;;
17596;SDS011;8917;50.942;6.946;2022-12-07T04:58:43;18.07;;;13.67;;
17596;SDS011;8917;50.942;6.946;2022-12-07T05:01:11;15.60;;;12.63;;
17596;SDS011;8917;50.942;6.946;2022-12-07T05:03:38;17.27;;;13.53;;
17596;SDS011;8917;50.942;6.946;2022-12-07T05:06:06;17.57;;;13.57;;
17596;SDS011;8917;50.942;6.946;2022-12-07T05:08:34;16.33;;;14.00;;
17596;SDS011;8917;50.942;6.946;2022-12-07T05:11:03;17.60;;;13.27;;
17596;SDS011;8917;50.942;6.946;2022-12-07T05:13:30;20.63;;;13.83;;
17596;SDS011;8917;50.942;6.946;2022-12-07T05:15:58;16.03;;;13.10;;
17596;SDS011;8917;50.942;6.946;2022-12-07T05:18:25;16.10;;;12.43;;
17596;SDS011;8917;50.942;6.946;2022-12-07T05:20:52;13.57;;;12.07;;
17596;SDS011;8917;50.942;6.946;2022-12-07T05:23:20;15.33;;;12.63;;
17596;SDS011;8917;50.942;6.946;2022-12-07T05:25:47;13.83;;;12.20;;
17596;SDS011;8917;50.942;6.946;2022-12-07T05:28:16;15.80;;;13.00;;
17596;SDS011;8917;50.942;6.946;2022-12-07T05:30:43;18.27;;;13.07;;
17596;SDS011;8917;50.942;6.946;2022-12-07T05:33:10;18.80;;;12.80;;
17596;SDS011;8917;50.942;6.946;2022-12-07T05:35:38;15.27;;;12.30;;
17596;SDS011;8917;50.942;6.946;2022-12-07T05:38:05;19.13;;;13.63;;
17596;SDS011;8917;50.942;6.946;2022-12-07T05:40:32;19.00;;;13.53;;
17596;SDS011;8917;50.942;6.946;2022-12-07T05:43:00;13.93;;;12.33;;
17596;SDS011;8917;50.942;6.946;2022-12-07T05:45:28;18.00;;;12.63;;
17596;SDS011;8917;50.942;6.946;2022-12-07T05:47:56;14.03;;;12.07;;
17596;SDS011;8917;50.942;6.946;2022-12-07T05:50:23;12.90;;;11.50;;
17596;SDS011;8917;50.942;6.946;2022-12-07T05:52:50;15.83;;;11.93;;
17596;SDS011;8917;50.942;6.946;2022-12-07T05:55:18;14.67;;;12.10;;
17596;SDS011;8917;50.942;6.946;2022-12-07T05:57:45;16.13;;;11.57;;
17596;SDS011;8917;50.942;6.946;2022-12-07T06:00:26;15.70;;;12.10;;
17596;SDS011;8917;50.942;6.946;2022-12-07T06:02:55;15.17;;;11.57;;
17596;SDS011;8917;50.942;6.946;2022-12-07T06:05:22;12.93;;;11.37;;
17596;SDS011;8917;50.942;6.946;2022-12-07T06:07:49;16.47;;;12.10;;
17596;SDS011;8917;50.942;6.946;2022-12-07T06:10:17;13.03;;;11.07;;
17596;SDS011;8917;50.942;6.946;2022-12-07T06:12:44;15.97;;;12.23;;
17596;SDS011;8917;50.942;6.946;2022-12-07T06:15:11;15.20;;;11.90;;
17596;SDS011;8917;50.942;6.946;2022-12-07T06:17:39;17.55;;;14.77;;
17596;SDS011;8917;50.942;6.946;2022-12-07T06:20:08;16.83;;;13.10;;
17596;SDS011;8917;50.942;6.946;2022-12-07T06:22:35;16.73;;;12.87;;
17596;SDS011;8917;50.942;6.946;2022-12-07T06:25:03;15.93;;;13.33;;
17596;SDS011;8917;50.942;6.946;2022-12-07T06:27:30;16.27;;;13.83;;
17596;SDS011;8917;50.942;6.946;2022-12-07T06:29:57;16.37;;;13.27;;
17596;SDS011;8917;50.942;6.946;2022-12-07T06:32:30;17.53;;;13.27;;
17596;SDS011;8917;50.942;6.946;2022-12-07T06:34:57;18.33;;;12.60;;
17596;SDS011;8917;50.942;6.946;2022-12-07T06:37:26;16.30;;;12.97;;
17596;SDS011;8917;50.942;6.946;2022-12-07T06:39:53;16.57;;;13.73;;
17596;SDS011;8917;50.942;6.946;2022-12-07T06:42:21;16.20;;;13.00;;
17596;SDS011;8917;50.942;6.946;2022-12-07T06:44:48;19.90;;;14.10;;
17596;SDS011;8917;50.942;6.946;2022-12-07T06:47:15;16.73;;;14.23;;
17596;SDS011;8917;50.942;6.946;2022-12-07T06:49:43;19.93;;;13.93;;
17596;SDS011;8917;50.942;6.946;2022-12-07T06:52:10;17.77;;;13.70;;
17596;SDS011;8917;50.942;6.946;2022-12-07T06:54:39;15.90;;;13.23;;
17596;SDS011;8917;50.942;6.946;2022-12-07T06:57:06;18.13;;;13.80;;
17596;SDS011;8917;50.942;6.946;2022-12-07T06:59:33;15.57;;;12.67;;
17596;SDS011;8917;50.942;6.946;2022-12-07T07:02:00;16.63;;;13.77;;
17596;SDS011;8917;50.942;6.946;2022-12-07T07:04:28;18.23;;;12.73;;
17596;SDS011;8917;50.942;6.946;2022-12-07T07:06:55;17.17;;;13.33;;
17596;SDS011;8917;50.942;6.946;2022-12-07T07:09:22;14.60;;;13.03;;
17596;SDS011;8917;50.942;6.946;2022-12-07T07:11:51;20.53;;;13.67;;
17596;SDS011;8917;50.942;6.946;2022-12-07T07:14:19;14.70;;;12.67;;
17596;SDS011;8917;50.942;6.946;2022-12-07T07:16:46;17.03;;;14.23;;
17596;SDS011;8917;50.942;6.946;2022-12-07T07:19:14;15.43;;;13.63;;
17596;SDS011;8917;50.942;6.946;2022-12-07T07:21:41;14.83;;;13.03;;
17596;SDS011;8917;50.942;6.946;2022-12-07T07:24:08;18.97;;;13.50;;
17596;SDS011;8917;50.942;6.946;2022-12-07T07:26:36;22.57;;;16.07;;
17596;SDS011;8917;50.942;6.946;2022-12-07T07:29:04;16.73;;;13.63;;
17596;SDS011;8917;50.942;6.946;2022-12-07T07:31:32;16.90;;;12.87;;
17596;SDS011;8917;50.942;6.946;2022-12-07T07:34:00;20.07;;;15.00;;
17596;SDS011;8917;50.942;6.946;2022-12-07T07:36:28;19.03;;;14.00;;
17596;SDS011;8917;50.942;6.946;2022-12-07T07:38:55;16.20;;;13.73;;
17596;SDS011;8917;50.942;6.946;2022-12-07T07:41:22;19.17;;;13.77;;
17596;SDS011;8917;50.942;6.946;2022-12-07T07:43:50;16.63;;;13.07;;
17596;SDS011;8917;50.942;6.946;2022-12-07T07:46:18;20.00;;;14.97;;
17596;SDS011;8917;50.942;6.946;2022-12-07T07:48:46;17.00;;;13.13;;
17596;SDS011;8917;50.942;6.946;2022-12-07T07:51:14;16.20;;;12.67;;
17596;SDS011;8917;50.942;6.946;2022-12-07T07:53:41;16.37;;;13.03;;
17596;SDS011;8917;50.942;6.946;2022-12-07T07:56:08;18.93;;;14.03;;
17596;SDS011;8917;50.942;6.946;2022-12-07T07:58:35;17.47;;;13.00;;
17596;SDS011;8917;50.942;6.946;2022-12-07T08:01:04;15.43;;;13.13;;
17596;SDS011;8917;50.942;6.946;2022-12-07T08:03:33;19.37;;;13.17;;
17596;SDS011;8917;50.942;6.946;2022-12-07T08:06:01;19.77;;;12.97;;
17596;SDS011;8917;50.942;6.946;2022-12-07T08:08:28;19.20;;;12.80;;
17596;SDS011;8917;50.942;6.946;2022-12-07T08:10:56;19.90;;;16.20;;
17596;SDS011;8917;50.942;6.946;2022-12-07T08:13:25;19.87;;;14.90;;
17596;SDS011;8917;50.942;6.946;2022-12-07T08:15:53;16.27;;;13.13;;
17596;SDS011;8917;50.942;6.946;2022-12-07T08:18:20;16.77;;;13.23;;
17596;SDS011;8917;50.942;6.946;2022-12-07T08:20:49;19.23;;;13.30;;
17596;SDS011;8917;50.942;6.946;2022-12-07T08:23:16;18.07;;;12.67;;
17596;SDS011;8917;50.942;6.946;2022-12-07T08:25:43;18.77;;;13.47;;
17596;SDS011;8917;50.942;6.946;2022-12-07T08:28:11;14.43;;;11.97;;
17596;SDS011;8917;50.942;6.946;2022-12-07T08:30:38;19.60;;;12.83;;
17596;SDS011;8917;50.942;6.946;2022-12-07T08:33:05;17.03;;;11.40;;
17596;SDS011;8917;50.942;6.946;2022-12-07T08:35:33;15.83;;;11.17;;
17596;SDS011;8917;50.942;6.946;2022-12-07T08:38:01;15.37;;;12.63;;
17596;SDS011;8917;50.942;6.946;2022-12-07T08:40:29;15.77;;;11.70;;
17596;SDS011;8917;50.942;6.946;2022-12-07T08:42:57;16.87;;;11.47;;
17596;SDS011;8917;50.942;6.946;2022-12-07T08:45:24;16.03;;;10.77;;
17596;SDS011;8917;50.942;6.946;2022-12-07T08:47:53;18.93;;;11.43;;
17596;SDS011;8917;50.942;6.946;2022-12-07T08:50:22;16.20;;;11.40;;
17596;SDS011;8917;50.942;6.946;2022-12-07T08:52:50;13.03;;;10.63;;
17596;SDS011;8917;50.942;6.946;2022-12-07T08:55:19;16.73;;;11.63;;
17596;SDS011;8917;50.942;6.946;2022-12-07T08:57:46;14.20;;;11.00;;
17596;SDS011;8917;50.942;6.946;2022-12-07T09:00:14;15.00;;;10.67;;
17596;SDS011;8917;50.942;6.946;2022-12-07T09:02:43;14.30;;;11.63;;
17596;SDS011;8917;50.942;6.946;2022-12-07T09:05:10;15.17;;;10.17;;
17596;SDS011;8917;50.942;6.946;2022-12-07T09:07:39;12.93;;;10.10;;
17596;SDS011;8917;50.942;6.946;2022-12-07T09:10:08;14.73;;;9.57;;
17596;SDS011;8917;50.942;6.946;2022-12-07T09:12:36;19.87;;;10.90;;
17596;SDS011;8917;50.942;6.946;2022-12-07T09:15:04;20.13;;;11.03;;
17596;SDS011;8917;50.942;6.946;2022-12-07T09:17:32;13.00;;;10.07;;
17596;SDS011;8917;50.942;6.946;2022-12-07T09:20:00;21.67;;;10.20;;
17596;SDS011;8917;50.942;6.946;2022-12-07T09:22:28;20.03;;;10.90;;
17596;SDS011;8917;50.942;6.946;2022-12-07T09:24:56;14.60;;;9.63;;
17596;SDS011;8917;50.942;6.946;2022-12-07T09:27:23;12.80;;;10.17;;
17596;SDS011;8917;50.942;6.946;2022-12-07T09:29:52;18.57;;;10.13;;
17596;SDS011;8917;50.942;6.946;2022-12-07T09:32:20;23.03;;;12.13;;
17596;SDS011;8917;50.942;6.946;2022-12-07T09:34:47;16.00;;;10.67;;
17596;SDS011;8917;50.942;6.946;2022-12-07T09:37:15;20.17;;;12.23;;
17596;SDS011;8917;50.942;6.946;2022-12-07T09:39:42;18.23;;;10.37;;
17596;SDS011;8917;50.942;6.946;2022-12-07T09:42:11;23.83;;;10.53;;
17596;SDS011;8917;50.942;6.946;2022-12-07T09:44:44;17.10;;;9.80;;
17596;SDS011;8917;50.942;6.946;2022-12-07T09:47:13;13.60;;;9.20;;
17596;SDS011;8917;50.942;6.946;2022-12-07T09:49:40;13.67;;;9.33;;
17596;SDS011;8917;50.942;6.946;2022-12-07T09:52:17;13.10;;;8.93;;
17596;SDS011;8917;50.942;6.946;2022-12-07T09:54:47;14.30;;;9.47;;
17596;SDS011;8917;50.942;6.946;2022-12-07T09:57:15;13.47;;;9.07;;
17596;SDS011;8917;50.942;6.946;2022-12-07T09:59:42;12.27;;;9.07;;
17596;SDS011;8917;50.942;6.946;2022-12-07T10:02:22;10.00;;;8.37;;
17596;SDS011;8917;50.942;6.946;2022-12-07T10:04:50;12.07;;;7.70;;
17596;SDS011;8917;50.942;6.946;2022-12-07T10:07:18;12.47;;;8.20;;
17596;SDS011;8917;50.942;6.946;2022-12-07T10:09:45;15.00;;;8.67;;
17596;SDS011;8917;50.942;6.946;2022-12-07T10:12:13;11.20;;;7.93;;
17596;SDS011;8917;50.942;6.946;2022-12-07T10:14:53;11.33;;;7.67;;
17596;SDS011;8917;50.942;6.946;2022-12-07T10:17:30;10.77;;;7.50;;
17596;SDS011;8917;50.942;6.946;2022-12-07T10:20:13;13.47;;;8.70;;
17596;SDS011;8917;50.942;6.946;2022-12-07T10:22:52;11.13;;;7.63;;
17596;SDS011;8917;50.942;6.946;2022-12-07T10:25:21;13.67;;;7.83;;
17596;SDS011;8917;50.942;6.946;2022-12-07T10:27:57;11.40;;;7.23;;
17596;SDS011;8917;50.942;6.946;2022-12-07T10:30:24;14.33;;;8.53;;
17596;SDS011;8917;50.942;6.946;2022-12-07T10:32:53;14.13;;;9.10;;
17596;SDS011;8917;50.942;6.946;2022-12-07T10:35:22;10.93;;;7.43;;
17596;SDS011;8917;50.942;6.946;2022-12-07T10:37:49;10.43;;;8.33;;
17596;SDS011;8917;50.942;6.946;2022-12-07T10:40:31;10.83;;;7.60;;
17596;SDS011;8917;50.942;6.946;2022-12-07T10:43:03;11.93;;;7.57;;
17596;SDS011;8917;50.942;6.946;2022-12-07T10:45:32;10.97;;;7.97;;
17596;SDS011;8917;50.942;6.946;2022-12-07T10:48:02;11.20;;;8.10;;
17596;SDS011;8917;50.942;6.946;2022-12-07T10:50:43;11.23;;;7.80;;
17596;SDS011;8917;50.942;6.946;2022-12-07T10:53:15;16.00;;;8.27;;
17596;SDS011;8917;50.942;6.946;2022-12-07T10:55:49;11.57;;;7.77;;
17596;SDS011;8917;50.942;6.946;2022-12-07T10:58:24;12.83;;;7.37;;
17596;SDS011;8917;50.942;6.946;2022-12-07T11:00:55;13.33;;;7.50;;
17596;SDS011;8917;50.942;6.946;2022-12-07T11:03:31;12.47;;;8.13;;
17596;SDS011;8917;50.942;6.946;2022-12-07T11:06:04;9.67;;;7.13;;
17596;SDS011;8917;50.942;6.946;2022-12-07T11:08:39;11.10;;;7.37;;
17596;SDS011;8917;50.942;6.946;2022-12-07T11:11:12;9.10;;;6.87;;
17596;SDS011;8917;50.942;6.946;2022-12-07T11:13:43;9.97;;;6.97;;
17596;SDS011;8917;50.942;6.946;2022-12-07T11:16:20;10.60;;;7.17;;
17596;SDS011;8917;50.942;6.946;2022-12-07T11:18:52;13.37;;;6.50;;
17596;SDS011;8917;50.942;6.946;2022-12-07T11:21:27;10.73;;;6.53;;
17596;SDS011;8917;50.942;6.946;2022-12-07T11:24:01;11.87;;;6.23;;
17596;SDS011;8917;50.942;6.946;2022-12-07T11:26:34;11.67;;;6.27;;
17596;SDS011;8917;50.942;6.946;2022-12-07T11:29:14;12.57;;;6.47;;
17596;SDS011;8917;50.942;6.946;2022-12-07T11:31:48;11.23;;;6.50;;
17596;SDS011;8917;50.942;6.946;2022-12-07T11:34:22;11.03;;;6.40;;
17596;SDS011;8917;50.942;6.946;2022-12-07T11:36:54;12.57;;;6.37;;
17596;SDS011;8917;50.942;6.946;2022-12-07T11:39:23;15.27;;;6.67;;
17596;SDS011;8917;50.942;6.946;2022-12-07T11:41:54;10.47;;;7.13;;
17596;SDS011;8917;50.942;6.946;2022-12-07T11:44:25;11.07;;;7.07;;
17596;SDS011;8917;50.942;6.946;2022-12-07T11:46:55;13.77;;;6.60;;
17596;SDS011;8917;50.942;6.946;2022-12-07T11:49:31;11.30;;;6.77;;
17596;SDS011;8917;50.942;6.946;2022-12-07T11:52:01;9.27;;;6.17;;
17596;SDS011;8917;50.942;6.946;2022-12-07T11:54:30;12.83;;;7.20;;
17596;SDS011;8917;50.942;6.946;2022-12-07T11:57:00;12.77;;;6.43;;
17596;SDS011;8917;50.942;6.946;2022-12-07T11:59:31;13.43;;;6.63;;
17596;SDS011;8917;50.942;6.946;2022-12-07T12:02:02;14.03;;;7.30;;
17596;SDS011;8917;50.942;6.946;2022-12-07T12:04:39;11.07;;;6.87;;
17596;SDS011;8917;50.942;6.946;2022-12-07T12:07:10;9.03;;;6.00;;
17596;SDS011;8917;50.942;6.946;2022-12-07T12:09:42;13.20;;;7.47;;
17596;SDS011;8917;50.942;6.946;2022-12-07T12:12:22;10.07;;;6.83;;
17596;SDS011;8917;50.942;6.946;2022-12-07T12:14:56;12.53;;;8.30;;
17596;SDS011;8917;50.942;6.946;2022-12-07T12:17:35;13.40;;;7.47;;
17596;SDS011;8917;50.942;6.946;2022-12-07T12:20:15;14.63;;;8.37;;
17596;SDS011;8917;50.942;6.946;2022-12-07T12:22:47;17.00;;;8.60;;
17596;SDS011;8917;50.942;6.946;2022-12-07T12:25:19;15.83;;;8.53;;
17596;SDS011;8917;50.942;6.946;2022-12-07T12:27:48;12.73;;;7.97;;
17596;SDS011;8917;50.942;6.946;2022-12-07T12:30:31;13.90;;;8.40;;
17596;SDS011;8917;50.942;6.946;2022-12-07T12:33:06;13.90;;;8.60;;
17596;SDS011;8917;50.942;6.946;2022-12-07T12:35:40;17.77;;;10.40;;
17596;SDS011;8917;50.942;6.946;2022-12-07T12:38:24;14.13;;;8.87;;
17596;SDS011;8917;50.942;6.946;2022-12-07T12:40:52;15.70;;;10.00;;
17596;SDS011;8917;50.942;6.946;2022-12-07T12:48:48;15.20;;;9.03;;
17596;SDS011;8917;50.942;6.946;2022-12-07T12:54:04;30.07;;;18.77;;
17596;SDS011;8917;50.942;6.946;2022-12-07T12:56:35;15.10;;;8.27;;
17596;SDS011;8917;50.942;6.946;2022-12-07T12:59:22;12.47;;;8.30;;
17596;SDS011;8917;50.942;6.946;2022-12-07T13:01:50;13.63;;;8.80;;
17596;SDS011;8917;50.942;6.946;2022-12-07T13:04:37;11.27;;;7.53;;
17596;SDS011;8917;50.942;6.946;2022-12-07T13:07:10;12.23;;;7.53;;
17596;SDS011;8917;50.942;6.946;2022-12-07T13:09:39;14.00;;;8.00;;
17596;SDS011;8917;50.942;6.946;2022-12-07T13:12:11;10.93;;;7.00;;
17596;SDS011;8917;50.942;6.946;2022-12-07T13:14:42;11.27;;;7.37;;
17596;SDS011;8917;50.942;6.946;2022-12-07T13:17:09;13.63;;;7.93;;
17596;SDS011;8917;50.942;6.946;2022-12-07T13:19:56;11.97;;;8.03;;
17596;SDS011;8917;50.942;6.946;2022-12-07T13:22:38;12.73;;;6.97;;
17596;SDS011;8917;50.942;6.946;2022-12-07T13:25:09;13.10;;;8.30;;
17596;SDS011;8917;50.942;6.946;2022-12-07T13:27:37;22.03;;;9.30;;
17596;SDS011;8917;50.942;6.946;2022-12-07T13:30:09;15.40;;;8.17;;
17596;SDS011;8917;50.942;6.946;2022-12-07T13:32:40;11.90;;;7.50;;
17596;SDS011;8917;50.942;6.946;2022-12-07T13:37:50;9.10;;;7.17;;
17596;SDS011;8917;50.942;6.946;2022-12-07T13:40:19;16.83;;;7.30;;
17596;SDS011;8917;50.942;6.946;2022-12-07T13:42:48;12.27;;;7.67;;
17596;SDS011;8917;50.942;6.946;2022-12-07T13:45:24;12.70;;;7.57;;
17596;SDS011;8917;50.942;6.946;2022-12-07T13:48:13;12.43;;;6.83;;
17596;SDS011;8917;50.942;6.946;2022-12-07T13:50:41;14.77;;;7.27;;
17596;SDS011;8917;50.942;6.946;2022-12-07T13:53:11;9.37;;;7.13;;
17596;SDS011;8917;50.942;6.946;2022-12-07T13:55:45;12.20;;;7.70;;
17596;SDS011;8917;50.942;6.946;2022-12-07T13:58:13;11.37;;;6.67;;
17596;SDS011;8917;50.942;6.946;2022-12-07T14:00:40;11.73;;;7.30;;
17596;SDS011;8917;50.942;6.946;2022-12-07T14:03:22;13.87;;;7.37;;
17596;SDS011;8917;50.942;6.946;2022-12-07T14:06:02;11.10;;;6.87;;
17596;SDS011;8917;50.942;6.946;2022-12-07T14:08:30;11.93;;;6.43;;
17596;SDS011;8917;50.942;6.946;2022-12-07T14:10:59;13.17;;;7.10;;
17596;SDS011;8917;50.942;6.946;2022-12-07T14:13:28;10.30;;;6.67;;
17596;SDS011;8917;50.942;6.946;2022-12-07T14:15:58;12.10;;;6.07;;
17596;SDS011;8917;50.942;6.946;2022-12-07T14:18:26;13.90;;;6.70;;
17596;SDS011;8917;50.942;6.946;2022-12-07T14:21:04;12.33;;;7.20;;
17596;SDS011;8917;50.942;6.946;2022-12-07T14:23:32;11.30;;;6.73;;
17596;SDS011;8917;50.942;6.946;2022-12-07T14:26:06;8.37;;;5.60;;
17596;SDS011;8917;50.942;6.946;2022-12-07T14:28:35;10.77;;;6.33;;
17596;SDS011;8917;50.942;6.946;2022-12-07T14:31:02;11.07;;;6.33;;
17596;SDS011;8917;50.942;6.946;2022-12-07T14:33:30;9.63;;;6.87;;
17596;SDS011;8917;50.942;6.946;2022-12-07T14:35:57;15.67;;;7.30;;
17596;SDS011;8917;50.942;6.946;2022-12-07T14:38:25;12.37;;;7.23;;
17596;SDS011;8917;50.942;6.946;2022-12-07T14:40:52;13.00;;;7.47;;
17596;SDS011;8917;50.942;6.946;2022-12-07T14:43:42;11.60;;;6.57;;
17596;SDS011;8917;50.942;6.946;2022-12-07T14:46:09;10.20;;;6.63;;
17596;SDS011;8917;50.942;6.946;2022-12-07T14:48:36;10.67;;;6.43;;
17596;SDS011;8917;50.942;6.946;2022-12-07T14:51:04;8.57;;;6.77;;
17596;SDS011;8917;50.942;6.946;2022-12-07T14:53:33;9.13;;;7.23;;
17596;SDS011;8917;50.942;6.946;2022-12-07T14:56:02;11.43;;;6.73;;
17596;SDS011;8917;50.942;6.946;2022-12-07T14:58:31;11.37;;;6.40;;
17596;SDS011;8917;50.942;6.946;2022-12-07T15:01:00;13.37;;;7.17;;
17596;SDS011;8917;50.942;6.946;2022-12-07T15:03:27;8.73;;;6.83;;